Time;durP1;ratioP1;P1;durP2;ratioP2;P2;SDS_P1;SDS_P2;PMS_P1;PMS_P2;Temp;Humidity;BMP_temperature;BMP_pressure;BME280_temperature;BME280_humidity;BME280_pressure;Samples;Min_cycle;Max_cycle;Signal;HPM_P1;HPM_P2
2023/12/21 00:00:55;;;;;;;10.68;2.17;;;19.20;89.30;;;;;;5005541;28;20021;-82
2023/12/21 00:03:25;;;;;;;10.10;2.35;;;19.20;89.50;;;;;;5011353;28;20065;-82
2023/12/21 00:05:53;;;;;;;12.30;1.75;;;19.10;89.50;;;;;;5017228;28;20038;-83
2023/12/21 00:08:23;;;;;;;15.00;2.15;;;19.10;89.70;;;;;;5003358;28;20033;-83
2023/12/21 00:10:50;;;;;;;8.45;2.00;;;19.20;89.70;;;;;;5011164;28;20029;-80
2023/12/21 00:13:17;;;;;;;12.45;2.33;;;19.20;89.80;;;;;;5019090;28;20497;-80
2023/12/21 00:15:45;;;;;;;13.32;2.75;;;19.20;89.90;;;;;;5010129;28;20048;-77
2023/12/21 00:18:13;;;;;;;7.88;2.88;;;19.20;89.80;;;;;;5016757;28;20029;-81
2023/12/21 00:20:40;;;;;;;14.85;2.28;;;19.30;89.70;;;;;;5013691;28;20084;-82
2023/12/21 00:23:08;;;;;;;14.50;2.60;;;19.30;89.40;;;;;;5008319;28;20109;-83
2023/12/21 00:25:35;;;;;;;10.70;2.20;;;19.30;88.80;;;;;;5014254;28;20512;-78
2023/12/21 00:28:03;;;;;;;12.48;3.15;;;19.30;88.60;;;;;;5012432;28;20029;-78
2023/12/21 00:30:30;;;;;;;11.00;1.92;;;19.40;88.60;;;;;;5003852;28;20554;-76
2023/12/21 00:32:57;;;;;;;11.20;2.08;;;19.30;88.00;;;;;;5016097;28;20046;-76
2023/12/21 00:35:25;;;;;;;11.32;2.17;;;19.40;88.30;;;;;;5012114;28;20788;-82
2023/12/21 00:37:52;;;;;;;14.88;2.58;;;19.40;87.70;;;;;;5013468;28;20038;-82
2023/12/21 00:40:20;;;;;;;11.65;2.50;;;19.30;87.50;;;;;;5013197;28;20501;-78
2023/12/21 00:42:48;;;;;;;14.43;2.47;;;19.30;87.70;;;;;;5013057;28;20026;-76
2023/12/21 00:45:16;;;;;;;14.95;2.58;;;19.40;87.50;;;;;;5014710;28;20066;-81
2023/12/21 00:47:43;;;;;;;17.58;3.22;;;19.50;87.60;;;;;;5009801;28;20074;-82
2023/12/21 00:50:11;;;;;;;15.20;2.80;;;19.50;87.10;;;;;;5015333;28;20524;-81
2023/12/21 00:52:38;;;;;;;17.05;3.00;;;19.60;87.20;;;;;;5015661;28;20040;-80
2023/12/21 00:55:06;;;;;;;17.65;3.35;;;19.70;87.00;;;;;;5007943;28;20080;-80
2023/12/21 00:57:33;;;;;;;17.33;3.05;;;19.70;86.30;;;;;;5012855;28;20084;-81
2023/12/21 01:00:01;;;;;;;19.77;3.70;;;19.70;85.80;;;;;;5009856;28;20025;-82
2023/12/21 01:02:28;;;;;;;27.33;3.80;;;19.80;86.00;;;;;;5013063;28;20072;-83
2023/12/21 01:04:55;;;;;;;22.83;3.58;;;19.80;85.80;;;;;;5011289;28;20412;-82
2023/12/21 01:07:23;;;;;;;23.75;3.70;;;19.80;85.40;;;;;;5016160;28;20025;-82
2023/12/21 01:09:50;;;;;;;17.55;3.33;;;19.80;85.20;;;;;;5010636;28;20042;-81
2023/12/21 01:12:18;;;;;;;16.65;3.08;;;19.90;84.80;;;;;;4997618;28;20018;-83
2023/12/21 01:14:45;;;;;;;25.25;4.30;;;20.00;84.30;;;;;;5009947;28;20029;-81
2023/12/21 01:17:12;;;;;;;16.83;3.22;;;20.10;83.80;;;;;;5017590;28;20114;-83
2023/12/21 01:19:40;;;;;;;20.88;3.50;;;20.10;83.60;;;;;;5011674;28;20563;-83
2023/12/21 01:22:07;;;;;;;20.13;2.92;;;20.10;83.20;;;;;;5006835;28;20026;-79
2023/12/21 01:24:34;;;;;;;21.98;3.55;;;20.20;82.80;;;;;;5003397;28;20515;-84
2023/12/21 01:27:02;;;;;;;18.77;3.30;;;20.10;82.80;;;;;;5011805;28;20034;-82
2023/12/21 01:29:31;;;;;;;18.15;3.15;;;20.10;83.00;;;;;;5006201;28;20036;-81
2023/12/21 01:31:58;;;;;;;20.60;3.97;;;20.10;83.10;;;;;;5011280;28;20037;-83
2023/12/21 01:34:26;;;;;;;21.58;3.70;;;20.10;82.90;;;;;;5003362;28;20030;-83
2023/12/21 01:36:53;;;;;;;19.58;3.58;;;20.10;82.40;;;;;;5005341;28;20034;-82
2023/12/21 01:39:20;;;;;;;21.65;3.55;;;20.10;82.60;;;;;;5009675;28;20397;-83
2023/12/21 01:41:48;;;;;;;24.52;3.67;;;20.10;82.60;;;;;;5013594;28;20364;-81
2023/12/21 01:44:15;;;;;;;18.20;3.33;;;20.20;82.80;;;;;;5006052;28;20038;-82
2023/12/21 01:46:44;;;;;;;18.13;3.53;;;20.10;82.70;;;;;;5004020;28;20077;-81
2023/12/21 01:49:12;;;;;;;18.35;3.13;;;20.10;82.60;;;;;;5011495;28;20117;-83
2023/12/21 01:51:41;;;;;;;14.68;3.30;;;20.10;82.70;;;;;;5005836;28;20018;-79
2023/12/21 01:54:08;;;;;;;17.25;3.53;;;20.10;83.20;;;;;;5003300;28;20080;-80
2023/12/21 01:56:36;;;;;;;18.88;4.00;;;20.10;83.10;;;;;;5006762;28;20112;-81
2023/12/21 01:59:05;;;;;;;18.58;3.80;;;20.10;82.70;;;;;;5008245;28;20536;-82
2023/12/21 02:01:34;;;;;;;20.85;3.63;;;20.10;82.50;;;;;;5009451;28;20114;-78
2023/12/21 02:04:03;;;;;;;19.48;3.55;;;20.10;82.20;;;;;;5012768;28;20030;-79
2023/12/21 02:06:30;;;;;;;20.17;4.00;;;20.10;82.50;;;;;;5010163;28;20742;-80
2023/12/21 02:08:58;;;;;;;17.67;3.25;;;20.10;82.30;;;;;;5011491;28;20117;-82
2023/12/21 02:11:25;;;;;;;21.77;3.88;;;20.10;82.10;;;;;;5020317;28;20099;-88
2023/12/21 02:13:52;;;;;;;21.10;4.15;;;20.20;82.00;;;;;;5017190;28;20018;-92
2023/12/21 02:16:51;;;;;;;20.08;3.83;;;20.20;81.90;;;;;;5001983;28;20038;-91
2023/12/21 02:19:19;;;;;;;14.57;3.25;;;20.30;81.80;;;;;;5012402;28;20125;-83
2023/12/21 02:21:48;;;;;;;17.77;3.60;;;20.30;81.50;;;;;;5015368;28;20381;-88
2023/12/21 02:24:16;;;;;;;17.75;3.47;;;20.20;81.40;;;;;;5016082;28;20117;-88
2023/12/21 02:26:44;;;;;;;26.95;3.67;;;20.30;81.60;;;;;;5015783;28;20053;-84
2023/12/21 02:29:12;;;;;;;22.35;3.72;;;20.30;81.50;;;;;;5022914;28;20032;-85
2023/12/21 02:31:39;;;;;;;18.92;3.40;;;20.50;81.50;;;;;;5015823;28;20030;-89
2023/12/21 02:34:07;;;;;;;23.60;3.67;;;20.60;81.30;;;;;;5014381;28;20068;-77
2023/12/21 02:36:35;;;;;;;18.17;3.30;;;20.80;80.70;;;;;;5003575;28;20069;-89
2023/12/21 02:39:02;;;;;;;17.33;3.78;;;20.90;79.90;;;;;;4996715;28;20044;-86
2023/12/21 02:41:31;;;;;;;21.23;3.70;;;21.00;79.50;;;;;;4995971;28;20018;-82
2023/12/21 02:43:59;;;;;;;23.88;3.80;;;21.10;79.40;;;;;;5000575;28;20113;-86
2023/12/21 02:46:27;;;;;;;23.33;3.55;;;21.20;79.00;;;;;;5015568;28;20018;-87
2023/12/21 02:48:55;;;;;;;22.80;4.05;;;21.30;78.50;;;;;;5006746;28;20062;-81
2023/12/21 02:51:22;;;;;;;20.73;3.70;;;21.30;77.30;;;;;;5006965;28;20026;-78
2023/12/21 02:53:50;;;;;;;23.30;3.78;;;21.50;77.50;;;;;;5015676;28;20056;-83
2023/12/21 02:56:17;;;;;;;22.17;3.55;;;21.50;76.90;;;;;;5013795;28;20026;-80
2023/12/21 02:58:45;;;;;;;23.85;3.70;;;21.60;76.70;;;;;;5017233;28;20053;-84
2023/12/21 03:01:12;;;;;;;21.73;3.88;;;21.60;75.60;;;;;;5016873;28;20017;-87
2023/12/21 03:03:39;;;;;;;30.10;4.07;;;21.60;76.30;;;;;;5014036;28;20429;-85
2023/12/21 03:06:07;;;;;;;20.77;3.55;;;21.60;76.10;;;;;;5014750;28;20045;-84
2023/12/21 03:08:35;;;;;;;21.63;3.50;;;21.60;75.50;;;;;;5014921;28;20030;-85
2023/12/21 03:11:03;;;;;;;23.20;3.53;;;21.50;74.90;;;;;;5015069;28;20505;-80
2023/12/21 03:13:30;;;;;;;22.17;3.40;;;21.50;75.40;;;;;;5007297;28;20054;-85
2023/12/21 03:16:06;;;;;;;19.50;4.13;;;21.70;74.80;;;;;;4995334;28;20034;-81
2023/12/21 03:18:34;;;;;;;16.33;3.78;;;21.70;74.50;;;;;;4994762;28;20061;-84
2023/12/21 03:21:02;;;;;;;22.58;3.75;;;21.70;74.30;;;;;;5003164;28;20022;-84
2023/12/21 03:23:30;;;;;;;15.57;3.17;;;21.70;74.10;;;;;;5008874;28;20018;-85
2023/12/21 03:25:58;;;;;;;30.92;4.00;;;21.60;73.30;;;;;;5014473;28;20018;-91
2023/12/21 03:28:25;;;;;;;15.48;3.10;;;21.60;73.50;;;;;;5016001;28;20033;-86
2023/12/21 03:30:53;;;;;;;19.30;3.67;;;21.60;74.10;;;;;;5014636;28;20013;-87
2023/12/21 03:33:20;;;;;;;23.27;3.75;;;21.60;74.20;;;;;;5014734;28;20028;-82
2023/12/21 03:35:52;;;;;;;21.23;3.75;;;21.70;73.60;;;;;;5013190;28;20493;-85
2023/12/21 03:38:19;;;;;;;25.05;4.22;;;21.70;73.20;;;;;;5014416;28;20125;-77
2023/12/21 03:40:47;;;;;;;28.15;4.47;;;21.70;72.70;;;;;;4999292;28;20022;-85
2023/12/21 03:43:14;;;;;;;19.20;4.35;;;21.70;72.60;;;;;;5007719;28;20110;-79
2023/12/21 03:45:41;;;;;;;25.27;3.95;;;21.70;72.40;;;;;;4996552;28;20038;-81
2023/12/21 03:48:10;;;;;;;21.55;4.20;;;21.80;71.80;;;;;;4996956;28;20027;-76
2023/12/21 03:50:38;;;;;;;20.77;3.97;;;21.90;71.60;;;;;;4995290;28;20034;-79
2023/12/21 03:53:10;;;;;;;18.20;3.47;;;22.00;71.90;;;;;;4995097;28;20018;-86
2023/12/21 03:55:38;;;;;;;19.50;3.80;;;22.10;70.60;;;;;;5011695;28;20050;-84
2023/12/21 03:58:06;;;;;;;26.30;4.38;;;22.20;70.30;;;;;;5016566;28;20044;-85
2023/12/21 04:00:33;;;;;;;22.77;3.58;;;22.10;69.10;;;;;;5025231;28;20473;-78
2023/12/21 04:03:02;;;;;;;26.67;3.70;;;22.10;69.40;;;;;;5017006;28;20069;-81
2023/12/21 04:05:29;;;;;;;21.38;3.60;;;22.00;69.10;;;;;;5003576;28;20033;-77
2023/12/21 04:07:57;;;;;;;15.88;3.22;;;21.90;69.90;;;;;;5017681;28;20026;-78
2023/12/21 04:10:24;;;;;;;23.55;3.67;;;21.80;70.10;;;;;;5013887;28;20018;-82
2023/12/21 04:12:51;;;;;;;21.02;3.90;;;21.80;70.50;;;;;;5013970;28;20037;-85
2023/12/21 04:15:19;;;;;;;13.07;3.10;;;21.80;70.70;;;;;;5013968;28;20028;-86
2023/12/21 04:17:46;;;;;;;17.30;3.40;;;21.70;70.70;;;;;;5030190;28;20128;-84
2023/12/21 04:20:13;;;;;;;19.65;3.33;;;21.70;71.00;;;;;;5005202;28;20030;-86
2023/12/21 04:22:41;;;;;;;19.20;3.35;;;21.80;71.00;;;;;;4995096;28;20030;-83
2023/12/21 04:25:09;;;;;;;14.65;3.10;;;21.80;71.10;;;;;;5027666;28;20100;-79
2023/12/21 04:27:37;;;;;;;19.58;3.85;;;21.90;70.90;;;;;;5013874;28;20069;-80
2023/12/21 04:30:05;;;;;;;19.45;3.78;;;22.00;70.50;;;;;;5012679;28;20042;-82
2023/12/21 04:32:32;;;;;;;21.08;3.42;;;21.90;70.40;;;;;;5013488;28;20034;-89
2023/12/21 04:35:00;;;;;;;16.85;2.95;;;21.90;70.50;;;;;;5012461;28;20033;-79
2023/12/21 04:37:28;;;;;;;20.73;3.78;;;21.90;70.00;;;;;;5002122;28;20029;-93
2023/12/21 04:39:56;;;;;;;17.00;3.60;;;21.80;69.70;;;;;;5013248;28;20114;-82
2023/12/21 04:42:23;;;;;;;21.73;4.35;;;21.80;70.00;;;;;;5013011;28;20386;-79
2023/12/21 04:44:50;;;;;;;20.17;3.83;;;21.80;69.80;;;;;;5012845;28;20064;-88
2023/12/21 04:47:18;;;;;;;21.10;3.55;;;21.80;69.80;;;;;;5012347;28;20030;-91
2023/12/21 04:49:45;;;;;;;22.35;3.80;;;21.80;70.00;;;;;;5013144;28;20022;-81
2023/12/21 04:52:12;;;;;;;20.30;3.58;;;21.80;70.30;;;;;;5012841;28;20049;-78
2023/12/21 04:54:40;;;;;;;21.33;3.08;;;21.80;70.20;;;;;;5013663;28;20022;-76
2023/12/21 04:57:07;;;;;;;18.65;3.92;;;21.90;70.10;;;;;;5014801;28;20042;-83
2023/12/21 04:59:42;;;;;;;16.60;2.90;;;21.90;70.00;;;;;;5008500;28;20022;-82
2023/12/21 05:02:10;;;;;;;17.92;3.45;;;21.90;70.10;;;;;;4997819;28;20481;-80
2023/12/21 05:04:38;;;;;;;18.63;3.90;;;21.90;70.00;;;;;;5014003;28;20124;-89
2023/12/21 05:07:08;;;;;;;21.77;3.55;;;21.90;69.50;;;;;;5013450;28;20084;-82
2023/12/21 05:09:37;;;;;;;19.70;3.45;;;21.90;69.60;;;;;;4998310;28;20026;-80
2023/12/21 05:12:05;;;;;;;21.40;3.70;;;21.90;68.80;;;;;;5005366;28;20025;-86
2023/12/21 05:14:32;;;;;;;19.25;3.53;;;21.90;69.10;;;;;;5013177;28;20366;-82
2023/12/21 05:17:00;;;;;;;20.02;3.78;;;21.90;69.60;;;;;;5013667;28;20014;-81
2023/12/21 05:19:27;;;;;;;14.43;3.75;;;22.00;70.00;;;;;;5013206;28;20065;-88
2023/12/21 05:21:55;;;;;;;21.02;3.50;;;22.00;69.80;;;;;;5013058;28;20018;-77
2023/12/21 05:24:22;;;;;;;24.13;3.42;;;22.10;69.70;;;;;;5013083;28;20025;-84
2023/12/21 05:26:53;;;;;;;19.08;3.58;;;22.10;69.50;;;;;;5013429;28;20547;-78
2023/12/21 05:29:20;;;;;;;25.30;3.60;;;22.00;68.50;;;;;;5013101;28;20381;-80
2023/12/21 05:31:47;;;;;;;16.30;3.50;;;22.00;68.50;;;;;;5013413;28;20030;-82
2023/12/21 05:34:15;;;;;;;18.85;3.42;;;22.00;68.20;;;;;;5023213;28;20018;-77
2023/12/21 05:36:42;;;;;;;19.30;3.67;;;22.00;68.40;;;;;;5016107;28;20113;-81
2023/12/21 05:39:10;;;;;;;19.83;3.42;;;22.00;68.10;;;;;;5014066;28;20031;-82
2023/12/21 05:41:38;;;;;;;14.98;2.90;;;21.90;67.90;;;;;;5009361;28;20035;-83
2023/12/21 05:44:05;;;;;;;19.98;3.10;;;21.90;68.10;;;;;;4998680;28;20358;-82
2023/12/21 05:46:32;;;;;;;19.98;3.47;;;21.80;66.70;;;;;;5016602;28;20057;-81
2023/12/21 05:49:00;;;;;;;15.00;3.10;;;21.70;67.10;;;;;;5009814;28;20065;-79
2023/12/21 05:51:27;;;;;;;22.20;4.15;;;21.70;68.20;;;;;;4997415;28;20054;-79
2023/12/21 05:53:55;;;;;;;22.00;3.08;;;21.70;68.70;;;;;;5006512;28;20084;-79
2023/12/21 05:56:22;;;;;;;21.40;3.97;;;21.70;68.40;;;;;;5010840;28;20032;-84
2023/12/21 05:58:49;;;;;;;19.85;4.10;;;21.70;67.90;;;;;;5014000;28;20108;-80
2023/12/21 06:01:17;;;;;;;20.45;3.85;;;21.60;68.00;;;;;;5004706;28;20034;-80
2023/12/21 06:03:45;;;;;;;18.00;3.17;;;21.60;68.40;;;;;;5008779;28;20037;-84
2023/12/21 06:06:13;;;;;;;21.17;4.25;;;21.60;68.40;;;;;;5010520;28;20042;-82
2023/12/21 06:08:43;;;;;;;19.88;3.22;;;21.50;68.50;;;;;;5022955;28;20044;-84
2023/12/21 06:11:10;;;;;;;16.25;3.05;;;21.50;68.60;;;;;;5007759;28;20034;-82
2023/12/21 06:13:37;;;;;;;13.88;3.40;;;21.50;68.70;;;;;;5012667;28;20026;-83
2023/12/21 06:16:11;;;;;;;21.45;3.60;;;21.40;69.10;;;;;;5014791;28;20038;-78
2023/12/21 06:18:41;;;;;;;19.90;3.63;;;21.40;68.80;;;;;;5012030;28;20038;-78
2023/12/21 06:21:10;;;;;;;25.90;3.83;;;21.40;69.10;;;;;;5001167;28;20477;-89
2023/12/21 06:23:39;;;;;;;22.08;3.13;;;21.40;68.80;;;;;;5006475;28;20109;-85
2023/12/21 06:26:07;;;;;;;20.58;3.78;;;21.40;69.60;;;;;;5016972;28;20033;-82
2023/12/21 06:28:34;;;;;;;18.95;3.85;;;21.30;69.20;;;;;;5011697;28;20480;-80
2023/12/21 06:31:03;;;;;;;21.05;2.70;;;21.30;69.60;;;;;;5012477;28;20045;-83
2023/12/21 06:33:32;;;;;;;18.92;3.33;;;21.30;69.90;;;;;;5010321;28;20392;-84
2023/12/21 06:36:00;;;;;;;16.73;3.17;;;21.40;69.90;;;;;;5000534;28;20030;-84
2023/12/21 06:38:28;;;;;;;14.20;2.75;;;21.50;70.00;;;;;;5006564;28;20045;-84
2023/12/21 06:40:56;;;;;;;19.63;3.25;;;21.60;68.90;;;;;;5016945;28;20381;-86
2023/12/21 06:43:24;;;;;;;19.15;2.80;;;21.70;68.40;;;;;;5013635;28;20120;-89
2023/12/21 06:45:52;;;;;;;22.70;3.40;;;21.80;68.40;;;;;;5012809;28;20064;-88
2023/12/21 06:48:19;;;;;;;19.50;3.60;;;21.80;67.50;;;;;;5013604;28;20046;-78
2023/12/21 06:50:47;;;;;;;18.30;3.20;;;21.80;67.90;;;;;;5014099;28;20018;-91
2023/12/21 06:53:20;;;;;;;17.30;3.67;;;21.80;68.00;;;;;;5012933;28;20038;-84
2023/12/21 06:55:48;;;;;;;21.70;4.10;;;21.80;68.90;;;;;;5005383;28;20080;-85
2023/12/21 06:58:15;;;;;;;17.15;3.50;;;21.90;69.10;;;;;;5035572;28;20040;-92
2023/12/21 07:00:43;;;;;;;20.70;3.90;;;21.90;69.30;;;;;;5030122;28;20025;-85
2023/12/21 07:03:17;;;;;;;18.92;3.40;;;22.00;69.20;;;;;;5015929;28;20030;-91
2023/12/21 07:05:45;;;;;;;20.42;3.83;;;22.00;68.40;;;;;;5015133;28;20367;-92
2023/12/21 07:08:12;;;;;;;19.70;3.60;;;22.00;68.80;;;;;;5018378;28;20394;-81
2023/12/21 07:10:47;;;;;;;22.60;3.58;;;22.00;67.90;;;;;;5018811;28;20022;-83
2023/12/21 07:13:15;;;;;;;21.17;3.55;;;21.90;68.40;;;;;;5016102;28;20025;-91
2023/12/21 07:15:43;;;;;;;19.80;3.25;;;21.90;68.60;;;;;;5014965;28;20041;-77
2023/12/21 07:18:12;;;;;;;16.52;4.35;;;21.90;68.90;;;;;;5015239;28;20037;-82
2023/12/21 07:20:40;;;;;;;27.15;4.47;;;21.90;69.30;;;;;;5015483;28;20037;-78
2023/12/21 07:23:11;;;;;;;21.20;3.95;;;21.90;69.30;;;;;;5015432;28;20049;-91
2023/12/21 07:25:39;;;;;;;22.65;4.00;;;22.00;69.10;;;;;;5015498;28;20030;-85
2023/12/21 07:28:08;;;;;;;26.05;3.75;;;21.90;68.80;;;;;;5015741;28;20049;-89
2023/12/21 07:30:37;;;;;;;16.90;3.60;;;21.90;68.40;;;;;;5018502;28;20061;-81
2023/12/21 07:33:04;;;;;;;26.73;3.92;;;21.90;67.90;;;;;;5020321;28;20034;-84
2023/12/21 07:35:33;;;;;;;24.35;4.50;;;21.80;67.80;;;;;;5023039;28;20053;-79
2023/12/21 07:38:00;;;;;;;21.23;3.63;;;21.80;67.60;;;;;;5024064;28;20045;-84
2023/12/21 07:40:29;;;;;;;15.73;3.55;;;21.80;67.70;;;;;;5022038;28;20068;-88
2023/12/21 07:42:56;;;;;;;17.77;3.83;;;21.80;68.10;;;;;;5022698;28;20034;-80
2023/12/21 07:45:27;;;;;;;24.50;3.78;;;21.80;68.60;;;;;;5022754;28;20029;-81
2023/12/21 07:47:55;;;;;;;19.95;3.97;;;21.70;68.10;;;;;;5020818;28;20037;-80
2023/12/21 07:50:23;;;;;;;25.33;4.35;;;21.70;68.40;;;;;;5048000;28;20030;-85
2023/12/21 07:52:56;;;;;;;24.77;3.97;;;21.60;68.00;;;;;;5029138;28;20090;-83
2023/12/21 07:55:24;;;;;;;18.05;3.65;;;21.50;68.40;;;;;;5022904;28;20022;-82
2023/12/21 07:57:51;;;;;;;19.30;3.28;;;21.50;68.50;;;;;;5023784;28;20034;-81
2023/12/21 08:00:18;;;;;;;18.85;3.30;;;21.40;69.00;;;;;;5023870;28;20037;-84
2023/12/21 08:02:48;;;;;;;23.25;4.20;;;21.30;69.30;;;;;;5022323;28;20018;-82
2023/12/21 08:05:15;;;;;;;18.30;3.67;;;21.30;69.90;;;;;;5021760;28;20046;-78
2023/12/21 08:07:43;;;;;;;16.85;4.05;;;21.20;69.90;;;;;;5022032;28;20053;-85
2023/12/21 08:10:10;;;;;;;26.42;4.95;;;21.20;69.80;;;;;;5014342;28;20022;-78
2023/12/21 08:12:38;;;;;;;23.38;4.18;;;21.10;70.10;;;;;;5014885;28;20093;-78
2023/12/21 08:15:06;;;;;;;18.40;3.50;;;21.10;71.10;;;;;;5014591;28;20025;-91
2023/12/21 08:17:40;;;;;;;17.60;4.18;;;21.10;72.50;;;;;;5017900;28;20042;-78
2023/12/21 08:20:09;;;;;;;15.77;3.22;;;21.00;73.50;;;;;;5013868;28;20021;-84
2023/12/21 08:22:40;;;;;;;23.10;4.15;;;20.90;74.40;;;;;;5014230;28;20033;-92
2023/12/21 08:25:08;;;;;;;20.52;4.28;;;20.80;75.20;;;;;;4996681;28;20025;-83
2023/12/21 08:27:41;;;;;;;22.60;4.20;;;20.80;75.50;;;;;;4998117;28;20040;-93
2023/12/21 08:30:13;;;;;;;20.55;3.72;;;20.80;75.00;;;;;;5018026;28;20025;-90
2023/12/21 08:32:40;;;;;;;17.95;4.03;;;20.70;75.20;;;;;;5014103;28;20018;-81
2023/12/21 08:35:08;;;;;;;19.77;3.78;;;20.70;74.90;;;;;;5013895;28;20022;-85
2023/12/21 08:37:35;;;;;;;24.55;4.25;;;20.80;74.70;;;;;;5013978;28;20037;-85
2023/12/21 08:40:10;;;;;;;25.35;4.25;;;20.70;74.50;;;;;;5012195;28;20156;-90
2023/12/21 08:42:41;;;;;;;18.77;3.65;;;20.70;74.20;;;;;;5014075;28;20026;-80
2023/12/21 08:45:09;;;;;;;25.02;3.80;;;20.60;73.20;;;;;;5014356;28;20025;-92
2023/12/21 08:47:40;;;;;;;22.05;3.55;;;20.60;73.30;;;;;;5013946;28;20424;-81
2023/12/21 08:50:10;;;;;;;15.68;3.40;;;20.60;73.40;;;;;;5002586;28;20089;-93
2023/12/21 08:52:41;;;;;;;26.50;4.05;;;20.60;72.90;;;;;;4999809;28;20026;-78
2023/12/21 08:55:15;;;;;;;23.13;3.95;;;20.70;73.20;;;;;;4999593;28;20023;-77
2023/12/21 08:57:43;;;;;;;21.83;3.92;;;20.60;73.50;;;;;;4995660;28;20493;-76
2023/12/21 09:00:13;;;;;;;18.55;3.47;;;20.70;73.60;;;;;;4999455;28;20030;-90
2023/12/21 09:02:40;;;;;;;16.88;3.50;;;20.60;73.20;;;;;;5013713;28;20478;-84
2023/12/21 09:05:09;;;;;;;20.10;3.25;;;20.60;72.80;;;;;;5012748;28;20038;-78
2023/12/21 09:07:38;;;;;;;19.67;3.97;;;20.60;71.50;;;;;;4999912;28;20040;-81
2023/12/21 09:10:07;;;;;;;21.45;3.38;;;20.60;71.40;;;;;;5013094;28;20425;-83
2023/12/21 09:12:35;;;;;;;23.13;3.88;;;20.60;71.70;;;;;;5012986;28;20029;-83
2023/12/21 09:15:04;;;;;;;24.90;3.60;;;20.60;71.10;;;;;;5013689;28;20030;-83
2023/12/21 09:17:31;;;;;;;27.98;4.25;;;20.60;71.50;;;;;;5017471;28;20502;-85
2023/12/21 09:19:59;;;;;;;19.02;3.53;;;20.60;71.20;;;;;;5019975;28;20418;-85
2023/12/21 09:22:26;;;;;;;17.65;3.42;;;20.60;70.80;;;;;;5016906;28;20053;-85
2023/12/21 09:24:54;;;;;;;21.70;4.28;;;20.50;70.30;;;;;;5017037;28;20188;-82
2023/12/21 09:27:32;;;;;;;19.15;3.75;;;20.60;70.40;;;;;;5017058;28;20034;-84
2023/12/21 09:30:14;;;;;;;20.95;3.53;;;20.50;70.00;;;;;;5016628;28;20022;-83
2023/12/21 09:33:04;;;;;;;22.67;4.07;;;20.50;69.30;;;;;;5014973;28;20037;-85
2023/12/21 09:35:54;;;;;;;21.17;3.53;;;20.50;69.00;;;;;;5003035;28;20030;-87
2023/12/21 09:38:44;;;;;;;20.98;3.45;;;20.50;69.70;;;;;;5012898;28;20095;-84
2023/12/21 09:41:13;;;;;;;19.80;3.75;;;20.50;69.40;;;;;;5016733;28;20459;-84
2023/12/21 09:43:43;;;;;;;20.00;3.17;;;20.50;69.20;;;;;;5016554;28;20440;-86
2023/12/21 09:46:11;;;;;;;27.98;4.15;;;20.50;69.70;;;;;;5016399;28;20084;-84
2023/12/21 09:48:40;;;;;;;23.00;3.50;;;20.50;69.80;;;;;;5016286;28;20481;-85
2023/12/21 09:51:10;;;;;;;22.05;3.40;;;20.40;69.70;;;;;;5016220;28;20057;-85
2023/12/21 09:53:39;;;;;;;18.30;3.50;;;20.40;69.90;;;;;;5016129;28;20076;-84
2023/12/21 09:56:08;;;;;;;18.00;3.22;;;20.40;69.30;;;;;;5019384;28;20021;-81
2023/12/21 09:58:36;;;;;;;16.65;3.35;;;20.30;69.20;;;;;;5016341;28;20049;-88
2023/12/21 10:01:04;;;;;;;19.52;4.18;;;20.30;69.80;;;;;;5019431;28;20014;-81
2023/12/21 10:03:32;;;;;;;17.38;3.45;;;20.30;69.90;;;;;;5014983;28;20034;-82
2023/12/21 10:06:00;;;;;;;23.67;3.83;;;20.30;70.20;;;;;;5016266;28;20046;-85
2023/12/21 10:08:28;;;;;;;22.13;3.67;;;20.30;70.30;;;;;;5015804;28;20038;-83
2023/12/21 10:10:55;;;;;;;14.57;2.85;;;20.30;70.30;;;;;;5015935;28;20516;-82
2023/12/21 10:13:23;;;;;;;16.95;4.03;;;20.30;70.50;;;;;;5013930;28;20038;-86
2023/12/21 10:15:59;;;;;;;19.50;3.40;;;20.30;70.20;;;;;;5023521;28;20026;-84
2023/12/21 10:18:27;;;;;;;16.42;3.20;;;20.30;70.00;;;;;;5009503;28;20030;-79
2023/12/21 10:20:55;;;;;;;18.55;3.90;;;20.30;70.30;;;;;;5011789;28;20037;-80
2023/12/21 10:23:24;;;;;;;19.27;3.10;;;20.30;70.30;;;;;;4996780;28;20053;-79
2023/12/21 10:25:58;;;;;;;22.85;3.38;;;20.30;70.50;;;;;;5011771;28;20053;-86
2023/12/21 10:28:27;;;;;;;14.63;2.63;;;20.30;70.60;;;;;;5015220;28;20029;-83
2023/12/21 10:31:04;;;;;;;16.15;3.00;;;20.30;70.90;;;;;;5015713;28;20025;-87
2023/12/21 10:33:31;;;;;;;21.38;3.75;;;20.40;71.20;;;;;;5015013;28;20037;-81
2023/12/21 10:35:58;;;;;;;21.27;3.65;;;20.30;71.00;;;;;;5014894;28;20080;-87
2023/12/21 10:38:27;;;;;;;15.07;3.15;;;20.30;70.60;;;;;;5019317;28;20033;-83
2023/12/21 10:40:56;;;;;;;18.05;3.60;;;20.30;70.50;;;;;;5010410;28;20109;-82
2023/12/21 10:43:24;;;;;;;15.75;3.10;;;20.30;70.30;;;;;;5014474;28;20425;-87
2023/12/21 10:45:56;;;;;;;15.73;3.50;;;20.30;70.20;;;;;;5016568;28;20038;-80
2023/12/21 10:48:28;;;;;;;13.40;2.45;;;20.30;69.90;;;;;;5014387;28;20109;-87
2023/12/21 10:50:56;;;;;;;17.08;3.08;;;20.30;70.10;;;;;;5016950;28;20421;-79
2023/12/21 10:53:25;;;;;;;12.75;2.92;;;20.30;69.60;;;;;;5016239;28;20025;-84
2023/12/21 10:55:57;;;;;;;18.00;2.72;;;20.30;69.90;;;;;;5017785;28;20033;-82
2023/12/21 10:58:26;;;;;;;13.00;2.50;;;20.30;69.60;;;;;;5014840;28;20030;-87
2023/12/21 11:00:55;;;;;;;17.70;3.10;;;20.30;69.90;;;;;;5017095;28;20022;-79
2023/12/21 11:03:24;;;;;;;18.67;3.05;;;20.30;69.90;;;;;;5014636;28;20030;-87
2023/12/21 11:05:52;;;;;;;18.67;3.45;;;20.30;70.50;;;;;;5014459;28;20081;-79
2023/12/21 11:08:20;;;;;;;16.60;3.60;;;20.30;70.30;;;;;;5015542;28;20057;-81
2023/12/21 11:10:51;;;;;;;13.38;2.88;;;20.30;70.40;;;;;;5015574;28;20026;-82
2023/12/21 11:13:18;;;;;;;17.88;3.22;;;20.20;69.50;;;;;;5015287;28;20076;-83
2023/12/21 11:15:46;;;;;;;14.98;2.47;;;20.20;69.10;;;;;;5017904;28;20101;-80
2023/12/21 11:18:20;;;;;;;16.33;2.85;;;20.20;69.10;;;;;;5016353;28;20033;-80
2023/12/21 11:21:00;;;;;;;14.15;2.47;;;20.20;69.00;;;;;;5016520;28;20104;-85
2023/12/21 11:23:27;;;;;;;19.90;3.13;;;20.20;69.70;;;;;;5006331;28;20018;-79
2023/12/21 11:25:59;;;;;;;18.60;3.53;;;20.20;69.70;;;;;;5016059;28;20029;-84
2023/12/21 11:28:32;;;;;;;13.25;2.42;;;20.20;69.00;;;;;;5017367;28;20022;-85
2023/12/21 11:31:13;;;;;;;11.95;3.00;;;20.20;68.90;;;;;;5018820;28;20030;-85
2023/12/21 11:33:44;;;;;;;16.55;3.15;;;20.10;68.10;;;;;;5019329;28;20052;-83
2023/12/21 11:36:28;;;;;;;18.27;2.95;;;20.20;68.70;;;;;;5018045;28;20108;-88
2023/12/21 11:38:57;;;;;;;15.57;2.63;;;20.10;68.00;;;;;;5016642;28;20465;-85
2023/12/21 11:41:25;;;;;;;17.20;3.10;;;20.10;68.50;;;;;;5011963;28;20085;-81
2023/12/21 11:44:03;;;;;;;15.75;2.40;;;20.10;68.90;;;;;;5019935;28;20030;-85
2023/12/21 11:46:35;;;;;;;11.52;3.00;;;20.10;68.00;;;;;;5020451;28;20184;-87
2023/12/21 11:49:04;;;;;;;18.67;2.85;;;20.00;67.70;;;;;;5015570;28;20044;-80
2023/12/21 11:51:32;;;;;;;13.80;2.30;;;20.00;67.90;;;;;;5014971;28;20566;-85
2023/12/21 11:54:09;;;;;;;14.45;3.22;;;20.00;68.60;;;;;;5017055;28;20033;-85
2023/12/21 11:56:39;;;;;;;17.05;2.90;;;20.10;68.60;;;;;;5008826;28;20030;-83
2023/12/21 11:59:09;;;;;;;16.20;3.10;;;20.00;68.40;;;;;;5013791;28;20030;-81
2023/12/21 12:01:38;;;;;;;14.73;2.50;;;20.00;68.10;;;;;;5012174;28;20144;-81
2023/12/21 12:04:06;;;;;;;11.95;2.20;;;20.00;68.50;;;;;;5012949;28;20029;-84
2023/12/21 12:06:34;;;;;;;15.57;2.30;;;20.00;68.80;;;;;;5010484;28;20042;-80
2023/12/21 12:09:03;;;;;;;24.92;3.97;;;20.00;68.70;;;;;;5014454;28;20034;-79
2023/12/21 12:11:30;;;;;;;16.60;2.83;;;20.00;68.90;;;;;;5023751;28;20087;-76
2023/12/21 12:14:00;;;;;;;8.05;2.15;;;20.00;69.20;;;;;;5024864;28;20116;-77
2023/12/21 12:16:28;;;;;;;11.88;2.50;;;20.00;69.40;;;;;;5013185;28;20030;-82
2023/12/21 12:18:55;;;;;;;25.58;3.38;;;20.10;69.70;;;;;;5005010;28;20042;-85
2023/12/21 12:21:24;;;;;;;17.92;3.10;;;20.00;69.30;;;;;;5015317;28;20121;-77
2023/12/21 12:23:52;;;;;;;22.67;3.60;;;20.00;69.50;;;;;;5006779;28;20022;-76
2023/12/21 12:26:19;;;;;;;21.95;3.00;;;20.00;69.60;;;;;;5019969;28;20025;-82
2023/12/21 12:28:53;;;;;;;18.23;2.88;;;20.00;69.80;;;;;;5023068;28;20026;-78
2023/12/21 12:31:21;;;;;;;18.52;3.45;;;19.90;70.00;;;;;;5024734;28;20034;-80
2023/12/21 12:33:48;;;;;;;14.93;3.00;;;19.90;70.20;;;;;;5018534;28;20023;-81
2023/12/21 12:36:19;;;;;;;21.63;3.58;;;19.90;70.30;;;;;;5000494;28;20034;-82
2023/12/21 12:38:48;;;;;;;22.80;4.13;;;19.80;70.50;;;;;;5016332;28;20040;-79
2023/12/21 12:41:20;;;;;;;16.60;2.97;;;19.80;70.60;;;;;;5012327;28;20037;-82
2023/12/21 12:43:49;;;;;;;22.60;3.67;;;19.80;70.80;;;;;;5004114;28;20037;-88
2023/12/21 12:46:17;;;;;;;18.60;3.13;;;19.80;70.90;;;;;;5010480;28;20021;-86